Time;durP1;ratioP1;P1;durP2;ratioP2;P2;SDS_P1;SDS_P2;PMS_P1;PMS_P2;Temp;Humidity;BMP_temperature;BMP_pressure;BME280_temperature;BME280_humidity;BME280_pressure;Samples;Min_cycle;Max_cycle;Signal;HPM_P1;HPM_P2
2022/08/20 00:02:01;;;;;;;6.20;4.30;;;;;;;;;;108079;1307;23297;-26
2022/08/20 00:04:27;;;;;;;5.90;2.50;;;;;;;;;;108520;1299;23378;-29
2022/08/20 00:06:52;;;;;;;10.80;4.30;;;;;;;;;;108488;1298;22514;-29
2022/08/20 00:09:18;;;;;;;9.10;3.10;;;;;;;;;;108478;1299;23184;-29
2022/08/20 00:11:44;;;;;;;10.10;6.30;;;;;;;;;;108530;1299;22411;-23
2022/08/20 00:14:09;;;;;;;20.00;6.50;;;;;;;;;;108527;1306;22514;-23
2022/08/20 00:16:35;;;;;;;8.00;6.10;;;;;;;;;;108518;1298;22413;-29
2022/08/20 00:19:03;;;;;;;9.00;4.20;;;;;;;;;;108528;1298;23035;-29
2022/08/20 00:21:29;;;;;;;12.20;8.50;;;;;;;;;;108514;1298;23229;-29
2022/08/20 00:23:54;;;;;;;13.30;3.90;;;;;;;;;;108440;1306;22550;-24
2022/08/20 00:26:19;;;;;;;5.60;4.30;;;;;;;;;;108393;1298;22494;-26
2022/08/20 00:28:45;;;;;;;11.40;3.20;;;;;;;;;;108543;1298;23041;-24
2022/08/20 00:31:11;;;;;;;5.50;3.20;;;;;;;;;;108483;1298;22451;-24
2022/08/20 00:33:37;;;;;;;7.60;3.50;;;;;;;;;;108448;1298;23280;-25
2022/08/20 00:36:05;;;;;;;10.90;3.70;;;;;;;;;;108477;1298;23242;-23
2022/08/20 00:38:32;;;;;;;4.70;2.50;;;;;;;;;;108456;1299;23215;-29
2022/08/20 00:40:58;;;;;;;13.00;4.20;;;;;;;;;;108526;1298;22538;-28
2022/08/20 00:43:26;;;;;;;12.30;3.40;;;;;;;;;;108482;1298;22531;-24
2022/08/20 00:45:54;;;;;;;6.20;3.40;;;;;;;;;;108530;1299;22481;-28
2022/08/20 00:48:20;;;;;;;1.90;1.70;;;;;;;;;;108508;1299;22714;-24
2022/08/20 00:50:46;;;;;;;3.00;2.40;;;;;;;;;;108504;1298;22526;-24
2022/08/20 00:53:11;;;;;;;3.60;3.00;;;;;;;;;;108497;1298;22350;-29
2022/08/20 00:55:36;;;;;;;7.30;3.80;;;;;;;;;;108429;1307;22449;-29
2022/08/20 00:58:06;;;;;;;3.60;3.00;;;;;;;;;;108480;1298;22454;-31
2022/08/20 01:00:36;;;;;;;6.60;3.00;;;;;;;;;;107457;1307;22457;-30
2022/08/20 01:03:02;;;;;;;6.40;3.30;;;;;;;;;;108472;1299;22543;-25
2022/08/20 01:05:28;;;;;;;4.20;3.10;;;;;;;;;;108483;1298;22394;-24
2022/08/20 01:07:53;;;;;;;6.10;3.20;;;;;;;;;;108298;1307;22091;-24
2022/08/20 01:10:21;;;;;;;6.50;3.30;;;;;;;;;;108480;1299;22521;-30
2022/08/20 01:12:47;;;;;;;6.50;3.30;;;;;;;;;;108470;1299;23353;-25
2022/08/20 01:15:14;;;;;;;5.90;3.20;;;;;;;;;;108463;1299;23293;-30
2022/08/20 01:17:44;;;;;;;12.60;5.50;;;;;;;;;;107676;1299;1002878;-25
2022/08/20 01:20:12;;;;;;;11.00;4.20;;;;;;;;;;108550;1299;23146;-24
2022/08/20 01:25:12;;;;;;;7.90;3.80;;;;;;;;;;108458;1307;22535;-29
2022/08/20 01:27:37;;;;;;;11.10;4.70;;;;;;;;;;108200;1302;22386;-25
2022/08/20 01:30:03;;;;;;;12.80;3.40;;;;;;;;;;108386;1299;23176;-29
2022/08/20 01:32:29;;;;;;;7.10;3.10;;;;;;;;;;108493;1299;22449;-24
2022/08/20 01:34:54;;;;;;;4.00;3.00;;;;;;;;;;107727;1306;1003313;-24
2022/08/20 01:37:20;;;;;;;6.80;3.00;;;;;;;;;;108443;1307;22066;-27
2022/08/20 01:39:45;;;;;;;11.50;3.30;;;;;;;;;;108456;1306;22398;-24
2022/08/20 01:42:11;;;;;;;7.00;2.80;;;;;;;;;;108494;1298;22438;-25
2022/08/20 01:44:37;;;;;;;11.60;3.70;;;;;;;;;;108447;1299;23107;-24
2022/08/20 01:47:07;;;;;;;4.70;3.40;;;;;;;;;;108466;1299;22407;-29
2022/08/20 01:49:34;;;;;;;4.50;3.00;;;;;;;;;;108450;1298;23268;-29
2022/08/20 01:52:00;;;;;;;5.50;2.90;;;;;;;;;;108470;1299;23290;-29
2022/08/20 01:54:25;;;;;;;3.20;2.40;;;;;;;;;;107886;1298;785709;-29
2022/08/20 01:56:51;;;;;;;5.90;3.00;;;;;;;;;;108418;1299;22684;-29
2022/08/20 01:59:16;;;;;;;7.20;3.90;;;;;;;;;;108435;1299;23232;-24
2022/08/20 02:01:42;;;;;;;5.30;3.00;;;;;;;;;;108445;1299;23065;-29
2022/08/20 02:04:08;;;;;;;3.10;2.00;;;;;;;;;;107944;1298;23549;-24
2022/08/20 02:06:35;;;;;;;7.00;2.90;;;;;;;;;;108387;1307;22547;-29
2022/08/20 02:09:01;;;;;;;3.80;2.40;;;;;;;;;;108468;1298;22577;-29
2022/08/20 02:11:27;;;;;;;15.10;4.00;;;;;;;;;;108462;1298;23218;-25
2022/08/20 02:13:53;;;;;;;8.00;2.40;;;;;;;;;;108491;1298;22536;-29
2022/08/20 02:16:20;;;;;;;9.70;2.90;;;;;;;;;;108528;1298;23206;-29
2022/08/20 02:18:46;;;;;;;8.50;3.50;;;;;;;;;;108450;1298;22341;-29
2022/08/20 02:21:12;;;;;;;8.30;3.60;;;;;;;;;;108452;1307;22540;-29
2022/08/20 02:23:38;;;;;;;8.50;4.20;;;;;;;;;;108484;1298;23228;-24
2022/08/20 02:26:06;;;;;;;4.50;2.30;;;;;;;;;;108415;1298;23198;-23
2022/08/20 02:28:32;;;;;;;9.40;3.00;;;;;;;;;;108414;1298;23656;-28
2022/08/20 02:30:59;;;;;;;8.00;3.20;;;;;;;;;;108161;1298;23126;-28
2022/08/20 02:33:25;;;;;;;10.10;3.10;;;;;;;;;;108474;1298;22964;-23
2022/08/20 02:35:50;;;;;;;8.10;4.40;;;;;;;;;;108465;1298;23239;-28
2022/08/20 02:38:16;;;;;;;8.40;4.20;;;;;;;;;;108392;1302;23148;-23
2022/08/20 02:40:43;;;;;;;9.70;2.90;;;;;;;;;;108280;1299;23370;-23
2022/08/20 02:43:08;;;;;;;4.60;3.60;;;;;;;;;;108439;1307;23157;-28
2022/08/20 02:45:36;;;;;;;7.20;3.20;;;;;;;;;;108081;1298;23608;-23
2022/08/20 02:48:01;;;;;;;12.30;5.00;;;;;;;;;;108364;1299;22405;-28
2022/08/20 02:50:27;;;;;;;12.70;4.10;;;;;;;;;;108476;1298;22547;-23
2022/08/20 02:52:52;;;;;;;3.90;3.10;;;;;;;;;;108479;1307;22521;-28
2022/08/20 02:55:18;;;;;;;3.60;3.20;;;;;;;;;;108432;1307;23332;-27
2022/08/20 02:57:44;;;;;;;11.70;3.70;;;;;;;;;;108471;1307;22525;-23
2022/08/20 03:00:12;;;;;;;16.20;4.50;;;;;;;;;;108458;1298;22508;-28
2022/08/20 03:02:38;;;;;;;10.30;4.10;;;;;;;;;;108435;1298;22440;-28
2022/08/20 03:05:04;;;;;;;8.10;4.80;;;;;;;;;;108520;1298;22823;-28
2022/08/20 03:07:29;;;;;;;6.60;5.20;;;;;;;;;;108512;1298;23024;-28
2022/08/20 03:09:55;;;;;;;18.20;14.30;;;;;;;;;;108457;1306;22424;-23
2022/08/20 03:12:21;;;;;;;15.10;5.50;;;;;;;;;;107490;1298;23222;-25
2022/08/20 03:14:46;;;;;;;8.40;3.80;;;;;;;;;;108470;1298;23305;-26
2022/08/20 03:17:12;;;;;;;16.10;4.90;;;;;;;;;;108272;1306;22441;-26
2022/08/20 03:19:38;;;;;;;8.80;4.50;;;;;;;;;;108503;1307;22411;-30
2022/08/20 03:22:03;;;;;;;14.20;4.90;;;;;;;;;;108476;1298;23127;-30
2022/08/20 03:24:29;;;;;;;8.20;5.00;;;;;;;;;;108484;1298;22826;-25
2022/08/20 03:26:54;;;;;;;12.30;4.90;;;;;;;;;;108477;1298;23156;-26
2022/08/20 03:29:20;;;;;;;8.80;4.70;;;;;;;;;;108490;1298;23014;-25
2022/08/20 03:31:45;;;;;;;5.30;4.70;;;;;;;;;;108417;1298;23399;-30
2022/08/20 03:34:11;;;;;;;11.20;6.80;;;;;;;;;;108480;1307;22544;-26
2022/08/20 03:36:36;;;;;;;8.50;5.00;;;;;;;;;;108497;1298;22811;-25
2022/08/20 03:39:03;;;;;;;7.50;4.60;;;;;;;;;;108435;1298;23105;-25
2022/08/20 03:41:30;;;;;;;7.50;3.20;;;;;;;;;;108498;1298;22534;-25
2022/08/20 03:43:56;;;;;;;6.40;4.10;;;;;;;;;;108368;1300;23969;-22
2022/08/20 03:46:22;;;;;;;4.90;3.80;;;;;;;;;;108080;1299;22606;-30
2022/08/20 03:48:47;;;;;;;14.00;4.80;;;;;;;;;;108439;1298;23351;-28
2022/08/20 03:51:13;;;;;;;9.40;4.10;;;;;;;;;;108492;1298;23193;-28
2022/08/20 03:53:38;;;;;;;6.00;4.20;;;;;;;;;;108489;1298;22784;-23
2022/08/20 03:56:05;;;;;;;5.60;3.70;;;;;;;;;;108469;1298;22915;-28
2022/08/20 03:58:31;;;;;;;9.70;5.70;;;;;;;;;;108510;1298;22548;-27
2022/08/20 04:00:56;;;;;;;5.10;3.90;;;;;;;;;;108459;1298;23212;-23
2022/08/20 04:03:23;;;;;;;4.70;3.50;;;;;;;;;;108478;1298;22570;-28
2022/08/20 04:05:49;;;;;;;6.40;4.30;;;;;;;;;;108210;1298;23383;-28
2022/08/20 04:08:16;;;;;;;7.50;5.10;;;;;;;;;;108425;1298;23168;-28
2022/08/20 04:10:43;;;;;;;18.00;5.90;;;;;;;;;;108422;1306;22746;-28
2022/08/20 04:13:08;;;;;;;9.60;4.60;;;;;;;;;;108468;1298;22332;-24
2022/08/20 04:15:35;;;;;;;12.40;5.20;;;;;;;;;;108370;1298;22534;-28
2022/08/20 04:18:01;;;;;;;11.50;4.60;;;;;;;;;;107779;1299;23118;-28
2022/08/20 04:20:27;;;;;;;9.60;6.10;;;;;;;;;;108406;1306;22968;-28
2022/08/20 04:22:53;;;;;;;10.60;6.80;;;;;;;;;;108261;1298;22685;-24
2022/08/20 04:25:20;;;;;;;10.00;5.80;;;;;;;;;;108353;1299;22799;-23
2022/08/20 04:27:54;;;;;;;11.90;5.90;;;;;;;;;;108462;1306;23129;-28
2022/08/20 04:30:22;;;;;;;13.00;6.50;;;;;;;;;;108456;1298;22529;-28
2022/08/20 04:32:48;;;;;;;10.10;5.70;;;;;;;;;;108480;1298;22499;-28
2022/08/20 04:35:14;;;;;;;16.20;7.30;;;;;;;;;;108122;1307;23407;-26
2022/08/20 04:37:40;;;;;;;9.70;6.30;;;;;;;;;;108246;1307;23249;-26
2022/08/20 04:44:58;;;;;;;14.40;7.20;;;;;;;;;;107655;1311;545573;-26
2022/08/20 04:47:25;;;;;;;14.30;6.40;;;;;;;;;;107895;1304;23188;-30
2022/08/20 04:49:50;;;;;;;12.60;6.30;;;;;;;;;;107906;1305;23080;-26
2022/08/20 04:52:16;;;;;;;23.80;7.20;;;;;;;;;;107842;1305;22126;-26
2022/08/20 04:54:42;;;;;;;10.00;6.40;;;;;;;;;;107767;1313;25223;-30
2022/08/20 04:57:08;;;;;;;13.00;5.30;;;;;;;;;;107346;1308;23212;-26
2022/08/20 04:59:34;;;;;;;13.90;5.80;;;;;;;;;;107763;1305;464340;-25
2022/08/20 05:01:59;;;;;;;9.00;5.70;;;;;;;;;;108178;1303;22582;-31
2022/08/20 05:04:26;;;;;;;4.90;4.00;;;;;;;;;;108026;1304;22394;-23
2022/08/20 05:06:51;;;;;;;17.60;6.30;;;;;;;;;;108169;1310;22554;-27
2022/08/20 05:09:17;;;;;;;12.80;5.90;;;;;;;;;;107837;1303;25246;-24
2022/08/20 05:11:42;;;;;;;15.20;7.50;;;;;;;;;;108078;1303;23250;-26
2022/08/20 05:14:08;;;;;;;10.90;7.10;;;;;;;;;;108225;1303;23007;-30
2022/08/20 05:19:05;;;;;;;9.10;6.30;;;;;;;;;;108156;1304;22470;-25
2022/08/20 05:21:31;;;;;;;11.00;7.80;;;;;;;;;;108134;1303;22592;-25
2022/08/20 05:23:56;;;;;;;15.40;6.50;;;;;;;;;;108137;1303;23354;-26
2022/08/20 05:26:25;;;;;;;8.90;5.30;;;;;;;;;;108104;1303;22407;-30
2022/08/20 05:28:51;;;;;;;11.20;5.60;;;;;;;;;;108129;1303;22523;-26
2022/08/20 05:31:16;;;;;;;10.20;7.20;;;;;;;;;;107982;1303;22545;-30
2022/08/20 05:33:42;;;;;;;15.20;6.20;;;;;;;;;;108101;1289;22901;-30
2022/08/20 05:36:07;;;;;;;8.50;6.10;;;;;;;;;;108079;1303;23344;-23
2022/08/20 05:38:33;;;;;;;6.10;5.30;;;;;;;;;;108104;1303;22472;-28
2022/08/20 05:40:59;;;;;;;6.50;4.90;;;;;;;;;;107382;1310;22107;-28
2022/08/20 05:43:25;;;;;;;9.40;6.40;;;;;;;;;;108165;1304;23206;-30
2022/08/20 05:45:51;;;;;;;10.40;6.90;;;;;;;;;;108082;1304;22461;-30
2022/08/20 05:48:18;;;;;;;17.70;6.40;;;;;;;;;;107974;1303;22522;-28
2022/08/20 05:50:44;;;;;;;12.30;6.50;;;;;;;;;;108126;1303;23188;-28
2022/08/20 05:53:10;;;;;;;10.90;6.20;;;;;;;;;;108192;1303;22907;-28
2022/08/20 05:55:36;;;;;;;12.20;6.30;;;;;;;;;;107736;1310;22545;-24
2022/08/20 05:58:02;;;;;;;12.50;8.00;;;;;;;;;;107879;1304;23135;-24
2022/08/20 06:00:28;;;;;;;15.20;7.00;;;;;;;;;;108146;1303;23227;-28
2022/08/20 06:05:24;;;;;;;8.00;5.40;;;;;;;;;;108071;1311;23853;-28
2022/08/20 06:07:50;;;;;;;9.00;5.80;;;;;;;;;;108142;1304;23195;-24
2022/08/20 06:10:15;;;;;;;16.60;6.00;;;;;;;;;;107820;1311;23154;-28
2022/08/20 06:12:44;;;;;;;12.90;7.20;;;;;;;;;;108083;1304;22701;-25
2022/08/20 06:15:09;;;;;;;20.40;7.00;;;;;;;;;;108175;1303;23320;-24
2022/08/20 06:17:35;;;;;;;9.60;6.30;;;;;;;;;;108048;1303;22570;-24
2022/08/20 06:20:03;;;;;;;11.40;6.50;;;;;;;;;;108146;1304;22738;-28
2022/08/20 06:22:28;;;;;;;10.50;5.60;;;;;;;;;;108109;1303;22618;-24
2022/08/20 06:24:54;;;;;;;7.30;6.20;;;;;;;;;;108177;1303;23214;-28
2022/08/20 06:27:19;;;;;;;13.30;6.90;;;;;;;;;;107776;1291;23219;-31
2022/08/20 06:29:45;;;;;;;7.80;6.00;;;;;;;;;;107452;1304;22393;-24
2022/08/20 06:32:11;;;;;;;20.30;6.50;;;;;;;;;;107870;1305;22979;-24
2022/08/20 06:34:36;;;;;;;8.10;5.90;;;;;;;;;;108135;1304;22605;-28
2022/08/20 06:37:02;;;;;;;8.90;6.70;;;;;;;;;;108158;1303;22940;-29
2022/08/20 06:39:29;;;;;;;18.00;6.00;;;;;;;;;;108127;1304;22395;-29
2022/08/20 06:41:57;;;;;;;8.20;6.00;;;;;;;;;;108201;1303;23163;-26
2022/08/20 06:44:23;;;;;;;10.60;7.00;;;;;;;;;;107693;1305;22563;-28
2022/08/20 06:46:48;;;;;;;12.10;8.70;;;;;;;;;;108150;1303;23018;-24
2022/08/20 06:49:14;;;;;;;17.50;8.00;;;;;;;;;;108111;1303;22538;-29
2022/08/20 06:51:39;;;;;;;14.00;8.90;;;;;;;;;;108146;1303;22546;-28
2022/08/20 06:54:05;;;;;;;10.60;6.60;;;;;;;;;;107911;1304;25207;-25
2022/08/20 06:56:31;;;;;;;18.00;8.80;;;;;;;;;;108127;1311;22623;-25
2022/08/20 06:58:56;;;;;;;12.90;7.20;;;;;;;;;;108200;1303;22596;-28
2022/08/20 07:01:23;;;;;;;8.40;7.30;;;;;;;;;;107636;1303;22517;-29
2022/08/20 07:03:49;;;;;;;13.40;7.80;;;;;;;;;;108040;1310;23209;-24
2022/08/20 07:06:14;;;;;;;11.90;6.00;;;;;;;;;;108192;1303;23097;-24
2022/08/20 07:08:41;;;;;;;11.60;7.20;;;;;;;;;;108037;1311;23138;-27
2022/08/20 07:11:06;;;;;;;15.50;7.60;;;;;;;;;;108105;1303;23198;-29
2022/08/20 07:13:32;;;;;;;9.20;8.40;;;;;;;;;;108075;1311;22576;-29
2022/08/20 07:15:57;;;;;;;14.20;8.90;;;;;;;;;;108192;1303;23217;-28
2022/08/20 07:18:23;;;;;;;24.30;9.40;;;;;;;;;;108074;1303;25242;-28
2022/08/20 07:20:49;;;;;;;17.90;9.00;;;;;;;;;;107934;1301;23192;-28
2022/08/20 07:23:14;;;;;;;12.40;8.10;;;;;;;;;;108241;1301;23263;-29
2022/08/20 07:25:41;;;;;;;10.90;9.20;;;;;;;;;;108225;1301;23011;-24
2022/08/20 07:28:10;;;;;;;14.30;7.30;;;;;;;;;;108017;1304;22391;-29
2022/08/20 07:33:05;;;;;;;19.50;7.30;;;;;;;;;;108129;1309;23294;-28
2022/08/20 07:35:31;;;;;;;17.00;9.80;;;;;;;;;;108123;1301;22430;-28
2022/08/20 07:37:56;;;;;;;13.00;9.00;;;;;;;;;;108233;1309;22552;-23
2022/08/20 07:40:23;;;;;;;11.30;9.30;;;;;;;;;;108197;1288;23209;-28
2022/08/20 07:42:49;;;;;;;10.20;7.20;;;;;;;;;;108142;1301;23158;-23
2022/08/20 07:45:17;;;;;;;14.60;10.20;;;;;;;;;;108782;1303;23055;-23
2022/08/20 07:47:42;;;;;;;18.00;9.90;;;;;;;;;;108257;1295;22819;-28
2022/08/20 07:50:09;;;;;;;13.40;10.10;;;;;;;;;;108300;1295;23119;-26
2022/08/20 07:52:34;;;;;;;11.30;9.70;;;;;;;;;;108384;1295;23231;-23
2022/08/20 07:55:01;;;;;;;14.60;11.60;;;;;;;;;;108385;1295;23195;-24
2022/08/20 07:57:26;;;;;;;15.80;11.20;;;;;;;;;;108750;1295;23099;-24
2022/08/20 07:59:52;;;;;;;15.60;10.60;;;;;;;;;;108843;1295;23228;-23
2022/08/20 08:02:17;;;;;;;17.20;11.60;;;;;;;;;;108760;1295;23312;-28
2022/08/20 08:04:44;;;;;;;12.40;9.30;;;;;;;;;;108826;1295;22533;-28
2022/08/20 08:07:09;;;;;;;20.60;11.90;;;;;;;;;;108042;1295;23172;-25
2022/08/20 08:09:35;;;;;;;15.40;12.30;;;;;;;;;;108535;1295;23037;-28
2022/08/20 08:12:01;;;;;;;13.90;10.30;;;;;;;;;;108793;1303;23026;-28
2022/08/20 08:14:28;;;;;;;14.90;12.30;;;;;;;;;;108825;1303;22387;-24
2022/08/20 08:16:54;;;;;;;18.90;12.20;;;;;;;;;;108601;1303;23308;-23
2022/08/20 08:19:20;;;;;;;15.60;12.70;;;;;;;;;;108786;1295;23178;-28
2022/08/20 08:21:46;;;;;;;20.20;11.60;;;;;;;;;;108512;1295;23050;-25
2022/08/20 08:24:11;;;;;;;13.60;10.50;;;;;;;;;;108728;1288;23289;-27
2022/08/20 08:26:37;;;;;;;20.70;13.80;;;;;;;;;;108791;1303;22508;-27
2022/08/20 08:29:06;;;;;;;20.00;14.60;;;;;;;;;;108766;1295;23174;-27
2022/08/20 08:31:32;;;;;;;16.70;12.30;;;;;;;;;;108816;1295;23552;-27
2022/08/20 08:33:57;;;;;;;20.00;12.60;;;;;;;;;;108854;1295;22563;-27
2022/08/20 08:36:25;;;;;;;18.90;13.10;;;;;;;;;;108833;1295;23343;-23
2022/08/20 08:38:50;;;;;;;19.00;15.90;;;;;;;;;;108862;1295;22446;-23
2022/08/20 08:41:18;;;;;;;21.80;16.20;;;;;;;;;;108619;1295;22822;-27
2022/08/20 08:43:45;;;;;;;21.10;16.90;;;;;;;;;;108769;1295;22535;-23
2022/08/20 08:46:11;;;;;;;33.80;16.70;;;;;;;;;;108661;1303;23347;-27
2022/08/20 08:48:42;;;;;;;27.00;17.70;;;;;;;;;;108746;1295;23237;-27
2022/08/20 08:51:10;;;;;;;29.10;19.20;;;;;;;;;;108741;1298;23233;-28
2022/08/20 08:53:36;;;;;;;30.30;18.50;;;;;;;;;;108660;1295;23251;-28
2022/08/20 08:56:02;;;;;;;35.50;22.80;;;;;;;;;;108238;1295;23905;-28
2022/08/20 08:58:28;;;;;;;23.50;18.70;;;;;;;;;;108320;1303;23135;-26
2022/08/20 09:00:54;;;;;;;45.60;23.40;;;;;;;;;;108161;1298;23162;-23
2022/08/20 09:03:23;;;;;;;29.60;17.10;;;;;;;;;;108112;1298;22529;-23
2022/08/20 09:05:50;;;;;;;26.90;14.10;;;;;;;;;;108675;1295;23205;-23
2022/08/20 09:08:18;;;;;;;29.40;19.20;;;;;;;;;;108607;1303;22599;-23
2022/08/20 09:10:44;;;;;;;28.20;19.80;;;;;;;;;;108344;1295;23321;-28
2022/08/20 09:13:10;;;;;;;37.30;22.70;;;;;;;;;;108461;1295;22591;-28
2022/08/20 09:15:35;;;;;;;27.50;20.60;;;;;;;;;;108706;1295;22532;-24
2022/08/20 09:18:01;;;;;;;35.70;21.80;;;;;;;;;;108775;1295;23468;-25
2022/08/20 09:20:26;;;;;;;25.20;17.40;;;;;;;;;;108776;1295;22540;-32
2022/08/20 09:22:51;;;;;;;27.50;17.30;;;;;;;;;;108644;1295;23163;-27
2022/08/20 09:25:17;;;;;;;26.60;15.80;;;;;;;;;;108811;1295;22659;-24
2022/08/20 09:27:43;;;;;;;27.90;21.10;;;;;;;;;;108790;1295;22544;-23
2022/08/20 09:30:09;;;;;;;21.60;17.10;;;;;;;;;;108544;1295;22569;-23
2022/08/20 09:32:34;;;;;;;21.20;16.00;;;;;;;;;;108620;1295;22528;-24
2022/08/20 09:35:00;;;;;;;22.80;14.90;;;;;;;;;;108632;1295;22677;-23
2022/08/20 09:37:27;;;;;;;24.00;17.50;;;;;;;;;;108813;1295;23225;-28
2022/08/20 09:39:53;;;;;;;21.70;15.70;;;;;;;;;;108797;1295;22539;-24
2022/08/20 09:42:19;;;;;;;28.50;18.90;;;;;;;;;;108662;1295;23195;-27
2022/08/20 09:44:45;;;;;;;24.40;18.10;;;;;;;;;;108271;1298;22535;-28
2022/08/20 09:47:10;;;;;;;30.50;17.90;;;;;;;;;;108825;1303;23181;-28
2022/08/20 09:49:36;;;;;;;25.80;18.90;;;;;;;;;;108833;1289;22400;-23
2022/08/20 09:52:02;;;;;;;26.40;18.10;;;;;;;;;;108062;1295;22542;-30
2022/08/20 09:54:29;;;;;;;23.70;16.30;;;;;;;;;;108811;1295;23228;-23
2022/08/20 09:56:56;;;;;;;25.20;15.60;;;;;;;;;;108829;1303;23071;-27
2022/08/20 09:59:21;;;;;;;27.00;17.00;;;;;;;;;;108858;1295;23321;-24
2022/08/20 10:01:47;;;;;;;25.00;15.20;;;;;;;;;;108844;1295;22527;-23
2022/08/20 10:04:13;;;;;;;33.70;21.50;;;;;;;;;;108688;1298;22502;-27
2022/08/20 10:06:38;;;;;;;41.30;27.90;;;;;;;;;;108790;1303;23346;-27
2022/08/20 10:09:05;;;;;;;27.30;19.20;;;;;;;;;;108767;1295;22931;-24
2022/08/20 10:11:30;;;;;;;25.60;19.60;;;;;;;;;;108799;1295;23317;-27
2022/08/20 10:13:55;;;;;;;21.20;15.80;;;;;;;;;;108763;1303;22390;-29
2022/08/20 10:16:21;;;;;;;21.60;15.40;;;;;;;;;;108874;1295;22531;-28
2022/08/20 10:18:48;;;;;;;19.90;17.00;;;;;;;;;;108715;1297;23355;-24
2022/08/20 10:21:14;;;;;;;23.70;17.70;;;;;;;;;;108864;1295;22500;-28
2022/08/20 10:23:39;;;;;;;23.60;14.80;;;;;;;;;;108784;1295;22394;-26
2022/08/20 10:26:06;;;;;;;16.00;13.90;;;;;;;;;;108823;1295;22397;-24
2022/08/20 10:28:32;;;;;;;26.10;14.60;;;;;;;;;;108793;1295;22529;-28
2022/08/20 10:30:58;;;;;;;21.30;15.30;;;;;;;;;;108809;1295;23260;-24
2022/08/20 10:33:23;;;;;;;16.80;14.90;;;;;;;;;;108736;1295;23633;-24
2022/08/20 10:35:49;;;;;;;22.70;13.90;;;;;;;;;;108797;1295;23213;-24
2022/08/20 10:38:14;;;;;;;21.50;14.10;;;;;;;;;;108189;1295;23147;-28
2022/08/20 10:40:40;;;;;;;29.90;16.30;;;;;;;;;;108704;1303;23231;-24
2022/08/20 10:43:05;;;;;;;19.60;11.80;;;;;;;;;;108801;1295;22540;-28
2022/08/20 10:45:31;;;;;;;18.60;13.30;;;;;;;;;;108713;1303;23286;-24
2022/08/20 10:47:58;;;;;;;19.10;14.60;;;;;;;;;;108753;1295;23381;-29
2022/08/20 10:50:23;;;;;;;14.70;12.90;;;;;;;;;;108559;1298;23203;-29
2022/08/20 10:52:49;;;;;;;16.10;11.70;;;;;;;;;;108704;1295;22607;-25
2022/08/20 10:55:14;;;;;;;17.80;12.00;;;;;;;;;;108174;1295;23271;-28
2022/08/20 10:57:40;;;;;;;19.10;12.80;;;;;;;;;;108433;1295;23112;-24
2022/08/20 11:00:08;;;;;;;14.70;10.20;;;;;;;;;;108807;1295;22098;-24
2022/08/20 11:02:34;;;;;;;16.20;11.10;;;;;;;;;;108851;1295;22404;-28
2022/08/20 11:05:01;;;;;;;13.20;11.60;;;;;;;;;;108803;1295;22997;-24
2022/08/20 11:07:28;;;;;;;19.10;11.20;;;;;;;;;;108848;1295;22627;-28
2022/08/20 11:09:53;;;;;;;14.40;10.70;;;;;;;;;;108823;1295;25091;-24
2022/08/20 11:12:19;;;;;;;16.70;12.00;;;;;;;;;;108817;1295;23294;-24
2022/08/20 11:14:44;;;;;;;14.00;11.70;;;;;;;;;;108661;1295;23188;-28
2022/08/20 11:17:10;;;;;;;16.10;12.10;;;;;;;;;;108798;1303;22458;-28
2022/08/20 11:19:38;;;;;;;17.20;9.60;;;;;;;;;;108762;1295;23343;-28
2022/08/20 11:22:03;;;;;;;12.60;9.90;;;;;;;;;;108479;1295;22438;-24
2022/08/20 11:24:29;;;;;;;12.10;10.40;;;;;;;;;;108801;1303;23032;-28
2022/08/20 11:26:55;;;;;;;16.60;10.40;;;;;;;;;;108894;1295;23388;-28
2022/08/20 11:29:21;;;;;;;12.60;10.10;;;;;;;;;;108835;1295;22712;-24
2022/08/20 11:31:47;;;;;;;23.70;11.00;;;;;;;;;;107548;1303;23309;-24
2022/08/20 11:34:12;;;;;;;13.80;9.70;;;;;;;;;;108848;1295;22396;-29
2022/08/20 11:36:37;;;;;;;19.80;9.10;;;;;;;;;;108811;1295;22550;-28
2022/08/20 11:39:03;;;;;;;12.90;9.80;;;;;;;;;;108822;1295;22399;-24
2022/08/20 11:41:29;;;;;;;8.70;7.80;;;;;;;;;;108835;1295;23221;-24
2022/08/20 11:43:54;;;;;;;21.70;9.70;;;;;;;;;;108749;1295;23291;-28
2022/08/20 11:46:20;;;;;;;12.40;8.30;;;;;;;;;;108767;1303;23170;-24
2022/08/20 11:48:45;;;;;;;13.10;10.30;;;;;;;;;;108775;1295;22801;-28
2022/08/20 11:51:11;;;;;;;13.10;9.20;;;;;;;;;;108802;1303;23232;-25
2022/08/20 11:53:36;;;;;;;12.10;7.90;;;;;;;;;;108804;1295;22408;-24
2022/08/20 11:56:02;;;;;;;12.20;8.80;;;;;;;;;;108798;1295;22621;-24
2022/08/20 11:58:27;;;;;;;9.90;8.80;;;;;;;;;;108628;1295;23377;-28
2022/08/20 12:00:53;;;;;;;10.70;7.00;;;;;;;;;;108793;1295;22395;-28
2022/08/20 12:03:18;;;;;;;10.60;8.00;;;;;;;;;;108758;1303;23284;-28
2022/08/20 12:05:44;;;;;;;14.80;10.50;;;;;;;;;;108810;1295;23191;-24
2022/08/20 12:08:10;;;;;;;10.30;8.70;;;;;;;;;;108836;1295;22447;-24
2022/08/20 12:10:36;;;;;;;9.50;7.70;;;;;;;;;;108778;1295;22407;-24
2022/08/20 12:13:01;;;;;;;12.60;7.80;;;;;;;;;;108639;1298;25365;-28
2022/08/20 12:15:26;;;;;;;10.00;8.60;;;;;;;;;;108671;1298;23117;-28
2022/08/20 12:17:52;;;;;;;12.80;8.20;;;;;;;;;;108799;1303;23259;-28
2022/08/20 12:20:18;;;;;;;10.10;8.60;;;;;;;;;;108764;1298;22532;-28
2022/08/20 12:22:43;;;;;;;17.70;10.60;;;;;;;;;;108824;1295;23012;-24
2022/08/20 12:25:09;;;;;;;18.30;9.10;;;;;;;;;;108782;1295;22440;-28
2022/08/20 12:27:35;;;;;;;21.60;8.80;;;;;;;;;;108776;1295;23055;-24
2022/08/20 12:30:01;;;;;;;14.70;8.10;;;;;;;;;;108763;1295;23218;-28
2022/08/20 12:32:28;;;;;;;9.70;6.90;;;;;;;;;;108712;1295;23410;-27
2022/08/20 12:34:53;;;;;;;14.30;6.70;;;;;;;;;;108718;1295;22408;-27
2022/08/20 12:37:20;;;;;;;13.20;8.10;;;;;;;;;;108671;1295;22528;-28
2022/08/20 12:39:46;;;;;;;12.30;8.60;;;;;;;;;;108556;1303;22954;-27
2022/08/20 12:42:13;;;;;;;11.40;8.40;;;;;;;;;;108814;1295;22331;-25
2022/08/20 12:44:38;;;;;;;13.60;6.90;;;;;;;;;;108707;1303;22557;-27
2022/08/20 12:47:05;;;;;;;8.80;7.40;;;;;;;;;;108610;1298;22550;-28
2022/08/20 12:49:31;;;;;;;11.20;7.10;;;;;;;;;;108602;1295;23281;-24
2022/08/20 12:51:56;;;;;;;15.30;7.10;;;;;;;;;;108719;1295;23184;-24
2022/08/20 12:54:22;;;;;;;6.30;5.80;;;;;;;;;;108711;1295;22539;-28
2022/08/20 12:56:47;;;;;;;7.80;5.40;;;;;;;;;;108748;1295;23190;-24
2022/08/20 12:59:13;;;;;;;7.10;5.70;;;;;;;;;;107614;1295;1478020;-24
2022/08/20 13:01:38;;;;;;;8.50;5.00;;;;;;;;;;108737;1295;22794;-24
2022/08/20 13:04:04;;;;;;;8.10;5.30;;;;;;;;;;108723;1296;23361;-24
2022/08/20 13:06:29;;;;;;;10.60;5.90;;;;;;;;;;108691;1297;23109;-24
2022/08/20 13:08:55;;;;;;;8.70;5.80;;;;;;;;;;108632;1303;22563;-24
2022/08/20 13:11:21;;;;;;;17.20;5.70;;;;;;;;;;108631;1295;23715;-25
2022/08/20 13:13:46;;;;;;;6.60;5.30;;;;;;;;;;108811;1295;22998;-24
2022/08/20 13:16:13;;;;;;;10.50;6.00;;;;;;;;;;108745;1303;23123;-24
2022/08/20 13:18:38;;;;;;;9.70;5.50;;;;;;;;;;108721;1297;22395;-24
2022/08/20 13:21:04;;;;;;;13.00;6.30;;;;;;;;;;108518;1295;23149;-28
2022/08/20 13:23:29;;;;;;;9.70;5.40;;;;;;;;;;108626;1301;23284;-28
2022/08/20 13:25:55;;;;;;;15.00;5.90;;;;;;;;;;108832;1295;23313;-28
2022/08/20 13:28:20;;;;;;;14.10;6.30;;;;;;;;;;108807;1283;22474;-24
2022/08/20 13:30:46;;;;;;;9.50;6.20;;;;;;;;;;108787;1303;22551;-24
2022/08/20 13:33:11;;;;;;;14.10;6.10;;;;;;;;;;108785;1295;23257;-25
2022/08/20 13:35:37;;;;;;;7.00;5.60;;;;;;;;;;108252;1295;23175;-27
2022/08/20 13:38:02;;;;;;;9.10;4.90;;;;;;;;;;108625;1295;23317;-24
2022/08/20 13:40:28;;;;;;;15.80;6.70;;;;;;;;;;108702;1297;23354;-24
2022/08/20 13:42:54;;;;;;;16.70;6.90;;;;;;;;;;108803;1295;22545;-28
2022/08/20 13:45:19;;;;;;;6.00;5.20;;;;;;;;;;108762;1295;22540;-24
2022/08/20 13:47:45;;;;;;;8.50;5.90;;;;;;;;;;108436;1303;22556;-24
2022/08/20 13:50:12;;;;;;;7.70;5.50;;;;;;;;;;108798;1303;23063;-27
2022/08/20 13:52:37;;;;;;;9.20;4.90;;;;;;;;;;108717;1295;22445;-27
2022/08/20 13:55:04;;;;;;;7.40;5.00;;;;;;;;;;108752;1295;22521;-27
2022/08/20 13:57:29;;;;;;;9.00;6.20;;;;;;;;;;108650;1303;22620;-24
2022/08/20 13:59:55;;;;;;;18.70;5.40;;;;;;;;;;108766;1303;22513;-27
2022/08/20 14:02:21;;;;;;;16.40;6.70;;;;;;;;;;108810;1295;22556;-26
2022/08/20 14:04:47;;;;;;;7.50;4.80;;;;;;;;;;108830;1295;23204;-27
2022/08/20 14:07:15;;;;;;;6.60;5.30;;;;;;;;;;108796;1295;22764;-27
2022/08/20 14:09:41;;;;;;;8.10;5.30;;;;;;;;;;108746;1295;22550;-27
2022/08/20 14:12:08;;;;;;;13.50;5.70;;;;;;;;;;108784;1295;22530;-28
2022/08/20 14:14:33;;;;;;;6.80;5.30;;;;;;;;;;108797;1295;23100;-24
2022/08/20 14:16:59;;;;;;;10.60;5.90;;;;;;;;;;108778;1303;22542;-24
2022/08/20 14:19:24;;;;;;;12.40;4.70;;;;;;;;;;108596;1295;23338;-25
2022/08/20 14:21:49;;;;;;;9.50;5.70;;;;;;;;;;108760;1295;23237;-24
2022/08/20 14:24:15;;;;;;;17.80;7.40;;;;;;;;;;108733;1295;22534;-27
2022/08/20 14:26:40;;;;;;;9.90;6.00;;;;;;;;;;108233;1298;25193;-24